createdAt,value
2023-05-10T00:01:45.849Z,11.12
2023-05-10T00:04:12.961Z,11.01
2023-05-10T00:06:40.057Z,10.90
2023-05-10T00:09:07.832Z,10.82
2023-05-10T00:11:34.840Z,10.83
2023-05-10T00:14:01.791Z,10.74
2023-05-10T00:16:29.055Z,10.75
2023-05-10T00:18:56.083Z,10.68
2023-05-10T00:21:23.108Z,10.70
2023-05-10T00:23:50.178Z,10.56
2023-05-10T00:26:17.802Z,10.48
2023-05-10T00:28:45.621Z,10.42
2023-05-10T00:31:12.698Z,10.39
2023-05-10T00:33:39.683Z,10.40
2023-05-10T00:36:08.580Z,10.40
2023-05-10T00:38:35.656Z,10.38
2023-05-10T00:41:03.824Z,10.38
2023-05-10T00:43:31.434Z,10.41
2023-05-10T00:45:58.451Z,10.37
2023-05-10T00:48:25.588Z,10.38
2023-05-10T00:50:52.721Z,10.39
2023-05-10T00:53:19.751Z,10.45
2023-05-10T00:55:46.745Z,10.50
2023-05-10T00:58:14.299Z,10.51
2023-05-10T01:00:42.850Z,10.49
2023-05-10T01:03:09.943Z,10.54
2023-05-10T01:05:36.970Z,10.46
2023-05-10T01:08:04.070Z,10.42
2023-05-10T01:10:31.921Z,10.39
2023-05-10T01:12:58.908Z,10.33
2023-05-10T01:15:26.418Z,10.31
2023-05-10T01:17:53.436Z,10.27
2023-05-10T01:20:20.909Z,10.28
2023-05-10T01:23:06.234Z,10.31
2023-05-10T01:26:01.359Z,10.32
2023-05-10T01:28:46.502Z,10.33
2023-05-10T01:31:44.497Z,10.34
2023-05-10T01:34:17.443Z,10.35
2023-05-10T01:36:58.881Z,10.31
2023-05-10T01:39:33.882Z,10.33
2023-05-10T01:42:04.671Z,10.36
2023-05-10T01:44:59.236Z,10.39
2023-05-10T01:48:13.481Z,10.41
2023-05-10T01:50:43.379Z,10.47
2023-05-10T01:53:12.122Z,10.43
2023-05-10T01:55:49.885Z,10.35
2023-05-10T01:58:41.074Z,10.27
2023-05-10T02:01:08.097Z,10.23
2023-05-10T02:03:35.287Z,10.16
2023-05-10T02:06:02.734Z,10.10
2023-05-10T02:08:29.682Z,10.05
2023-05-10T02:10:57.663Z,10.01
2023-05-10T02:13:25.220Z,10.04
2023-05-10T02:15:52.439Z,10.04
2023-05-10T02:18:19.691Z,10.02
2023-05-10T02:20:47.016Z,9.90
2023-05-10T02:23:16.259Z,9.90
2023-05-10T02:25:44.467Z,9.86
2023-05-10T02:28:11.827Z,9.80
2023-05-10T02:30:38.883Z,9.76
2023-05-10T02:33:05.913Z,9.74
2023-05-10T02:35:34.495Z,9.77
2023-05-10T02:38:02.490Z,9.74
2023-05-10T02:40:30.718Z,9.62
2023-05-10T02:42:57.979Z,9.58
2023-05-10T02:45:27.598Z,9.54
2023-05-10T02:47:54.754Z,9.51
2023-05-10T02:50:21.782Z,9.53
2023-05-10T02:52:51.072Z,9.57
2023-05-10T02:55:18.183Z,9.55
2023-05-10T02:57:50.097Z,9.58
2023-05-10T03:00:17.519Z,9.61
2023-05-10T03:02:44.874Z,9.60
2023-05-10T03:05:11.930Z,9.51
2023-05-10T03:07:39.122Z,9.52
2023-05-10T03:10:07.038Z,9.51
2023-05-10T03:12:59.813Z,9.56
2023-05-10T03:15:33.113Z,9.71
2023-05-10T03:18:23.334Z,9.78
2023-05-10T03:20:52.122Z,9.81
2023-05-10T03:23:19.121Z,9.83
2023-05-10T03:25:47.204Z,9.89
2023-05-10T03:28:14.213Z,9.89
2023-05-10T03:30:42.169Z,9.96
2023-05-10T03:33:10.801Z,10.02
2023-05-10T03:35:40.540Z,10.14
2023-05-10T03:38:07.544Z,10.21
2023-05-10T03:40:34.679Z,10.25
2023-05-10T03:43:01.806Z,10.27
2023-05-10T03:45:28.977Z,10.38
2023-05-10T03:47:56.471Z,10.38
2023-05-10T03:50:27.435Z,10.39
2023-05-10T03:52:54.904Z,10.42
2023-05-10T03:55:22.144Z,10.47
2023-05-10T03:57:50.962Z,10.45
2023-05-10T04:00:19.278Z,10.43
2023-05-10T04:02:47.745Z,10.47
2023-05-10T04:05:19.172Z,10.48
2023-05-10T04:07:46.259Z,10.44
2023-05-10T04:10:13.439Z,10.42
2023-05-10T04:12:40.417Z,10.40
2023-05-10T04:15:08.056Z,10.35
2023-05-10T04:17:35.187Z,10.40
2023-05-10T04:20:02.260Z,10.45
2023-05-10T04:22:30.222Z,10.46
2023-05-10T04:24:57.868Z,10.50
2023-05-10T04:27:24.917Z,10.55
2023-05-10T04:29:52.189Z,10.63
2023-05-10T04:32:20.132Z,10.75
2023-05-10T04:34:47.637Z,10.84
2023-05-10T04:37:14.737Z,10.96
2023-05-10T04:39:42.497Z,11.06
2023-05-10T04:42:09.679Z,11.17
2023-05-10T04:44:37.342Z,11.31
2023-05-10T04:47:04.530Z,11.43
2023-05-10T04:49:32.178Z,11.59
2023-05-10T04:51:59.680Z,11.70
2023-05-10T04:54:27.631Z,11.74
2023-05-10T04:56:54.780Z,11.82
2023-05-10T04:59:21.894Z,11.93
2023-05-10T05:01:49.061Z,11.97
2023-05-10T05:04:16.158Z,12.09
2023-05-10T05:06:43.208Z,12.18
2023-05-10T05:09:11.266Z,12.32
2023-05-10T05:11:38.333Z,12.47
2023-05-10T05:14:05.814Z,12.61
2023-05-10T05:16:33.546Z,12.71
2023-05-10T05:19:01.113Z,12.81
2023-05-10T05:21:28.394Z,12.87
2023-05-10T05:23:55.419Z,13.00
2023-05-10T05:26:22.542Z,13.08
2023-05-10T05:28:51.097Z,13.18
2023-05-10T05:31:18.991Z,13.29
2023-05-10T05:33:46.188Z,13.28
2023-05-10T05:36:13.391Z,13.38
2023-05-10T05:38:40.929Z,13.45
2023-05-10T05:41:08.050Z,13.46
2023-05-10T05:43:37.428Z,13.45
2023-05-10T05:46:05.498Z,13.41
2023-05-10T05:48:32.731Z,13.39
2023-05-10T05:50:59.936Z,13.43
2023-05-10T05:53:27.486Z,13.48
2023-05-10T05:55:56.118Z,13.56
2023-05-10T05:58:23.695Z,13.66
2023-05-10T06:00:51.492Z,13.76
2023-05-10T06:03:19.162Z,13.91
2023-05-10T06:05:46.301Z,14.05
2023-05-10T06:08:13.332Z,14.04
2023-05-10T06:10:40.299Z,13.97
2023-05-10T06:13:07.486Z,14.02
2023-05-10T06:15:34.560Z,14.05
2023-05-10T06:18:01.676Z,14.05
2023-05-10T06:20:28.944Z,14.02
2023-05-10T06:22:56.144Z,13.95
2023-05-10T06:25:23.168Z,13.93
2023-05-10T06:27:52.889Z,14.02
2023-05-10T06:30:21.399Z,14.06
2023-05-10T06:32:48.455Z,14.05
2023-05-10T06:35:15.528Z,14.08
2023-05-10T06:37:42.776Z,14.19
2023-05-10T06:40:10.504Z,14.21
2023-05-10T06:42:37.653Z,14.22
2023-05-10T06:45:06.941Z,14.32
2023-05-10T06:47:35.207Z,14.36
2023-05-10T06:50:04.374Z,14.41
2023-05-10T06:52:31.402Z,14.51
2023-05-10T06:54:58.875Z,14.57
2023-05-10T06:57:31.818Z,14.70
2023-05-10T07:00:02.686Z,14.88
2023-05-10T07:02:29.958Z,15.04
2023-05-10T07:04:59.491Z,15.20
2023-05-10T07:07:28.455Z,15.32
2023-05-10T07:09:55.565Z,15.50
2023-05-10T07:12:22.541Z,15.66
2023-05-10T07:14:49.587Z,15.86
2023-05-10T07:17:17.988Z,15.94
2023-05-10T07:19:45.423Z,16.04
2023-05-10T07:22:12.704Z,16.23
2023-05-10T07:24:40.036Z,16.48
2023-05-10T07:27:07.578Z,16.78
2023-05-10T07:29:34.619Z,17.04
2023-05-10T07:32:01.675Z,17.20
2023-05-10T07:34:29.371Z,17.13
2023-05-10T07:36:56.411Z,17.18
2023-05-10T07:39:27.630Z,17.27
2023-05-10T07:41:58.479Z,17.34
2023-05-10T07:44:25.684Z,17.42
2023-05-10T07:46:53.280Z,17.42
2023-05-10T07:49:21.028Z,17.47
2023-05-10T07:51:48.120Z,17.47
2023-05-10T07:54:15.375Z,17.59
2023-05-10T07:56:48.698Z,17.65
2023-05-10T07:59:16.773Z,17.65
2023-05-10T08:01:43.927Z,17.64
2023-05-10T08:04:11.122Z,17.71
2023-05-10T08:06:39.005Z,17.74
2023-05-10T08:09:06.081Z,17.76
2023-05-10T08:11:35.014Z,17.85
2023-05-10T08:14:03.424Z,18.05
2023-05-10T08:16:30.806Z,18.23
2023-05-10T08:18:58.063Z,18.40
2023-05-10T08:21:25.891Z,18.47
2023-05-10T08:23:52.955Z,18.53
2023-05-10T08:26:20.058Z,18.57
2023-05-10T08:28:47.290Z,18.50
2023-05-10T08:31:14.379Z,18.32
2023-05-10T08:33:42.406Z,18.28
2023-05-10T08:36:11.534Z,18.37
2023-05-10T08:38:38.917Z,18.45
2023-05-10T08:41:06.522Z,18.57
2023-05-10T08:43:33.663Z,18.70
2023-05-10T08:46:05.719Z,18.71
2023-05-10T08:48:32.857Z,18.70
2023-05-10T08:51:01.152Z,18.80
2023-05-10T08:53:29.108Z,18.91
2023-05-10T08:55:56.774Z,18.84
2023-05-10T08:58:23.958Z,18.61
2023-05-10T09:00:53.903Z,18.45
2023-05-10T09:03:21.258Z,18.53
2023-05-10T09:05:49.704Z,18.69
2023-05-10T09:08:17.586Z,18.72
2023-05-10T09:10:45.520Z,18.70
2023-05-10T09:13:14.362Z,18.60
2023-05-10T09:15:41.406Z,18.50
2023-05-10T09:18:09.047Z,18.41
2023-05-10T09:20:36.190Z,18.10
2023-05-10T09:23:03.321Z,17.66
2023-05-10T09:25:30.479Z,17.45
2023-05-10T09:27:57.557Z,17.28
2023-05-10T09:30:29.273Z,17.14
2023-05-10T09:32:56.932Z,17.06
2023-05-10T09:35:28.735Z,16.90
2023-05-10T09:37:58.512Z,16.58
2023-05-10T09:40:26.422Z,16.21
2023-05-10T09:43:04.063Z,15.69
2023-05-10T09:45:32.747Z,15.06
2023-05-10T09:48:00.389Z,14.55
2023-05-10T09:50:28.248Z,14.19
2023-05-10T09:53:02.366Z,13.98
2023-05-10T09:55:43.013Z,13.93
2023-05-10T09:58:12.816Z,13.98
2023-05-10T10:00:44.825Z,14.04
2023-05-10T10:03:20.427Z,14.23
2023-05-10T10:05:48.280Z,14.42
2023-05-10T10:08:15.799Z,14.65
2023-05-10T10:10:43.561Z,14.82
2023-05-10T10:13:10.761Z,15.04
2023-05-10T10:15:38.141Z,15.15
2023-05-10T10:18:05.496Z,15.18
2023-05-10T10:20:33.096Z,15.18
2023-05-10T10:23:00.173Z,15.28
2023-05-10T10:25:27.322Z,15.36
2023-05-10T10:27:54.395Z,15.41
2023-05-10T10:30:36.552Z,15.56
2023-05-10T10:33:35.109Z,15.77
2023-05-10T10:36:03.355Z,15.90
2023-05-10T10:38:48.714Z,15.94
2023-05-10T10:41:36.436Z,16.10
2023-05-10T10:44:41.592Z,16.31
2023-05-10T10:47:24.510Z,16.56
2023-05-10T10:50:18.229Z,16.77
2023-05-10T10:52:45.461Z,16.91
2023-05-10T10:55:20.024Z,16.98
2023-05-10T10:57:48.963Z,17.09
2023-05-10T11:00:22.267Z,17.20
2023-05-10T11:02:52.862Z,17.19
2023-05-10T11:05:28.981Z,17.22
2023-05-10T11:08:01.116Z,17.36
2023-05-10T11:10:30.741Z,17.56
2023-05-10T11:13:02.332Z,17.83
2023-05-10T11:15:31.799Z,18.02
2023-05-10T11:17:59.064Z,18.33
2023-05-10T11:20:34.380Z,18.57
2023-05-10T11:23:13.682Z,18.84
2023-05-10T11:25:45.250Z,19.03
2023-05-10T11:28:13.200Z,19.23
2023-05-10T11:30:41.188Z,19.47
2023-05-10T11:33:09.055Z,19.72
2023-05-10T11:35:42.998Z,20.01
2023-05-10T11:38:12.463Z,20.30
2023-05-10T11:40:39.787Z,20.49
2023-05-10T11:43:07.010Z,20.60
2023-05-10T11:45:35.592Z,20.65
2023-05-10T11:48:03.301Z,20.87
2023-05-10T11:50:30.779Z,21.03
2023-05-10T11:52:58.257Z,21.07
2023-05-10T11:55:25.518Z,21.11
2023-05-10T11:57:55.950Z,21.05
2023-05-10T12:00:23.147Z,20.73
2023-05-10T12:02:51.263Z,20.27
2023-05-10T12:05:18.386Z,19.90
2023-05-10T12:07:45.863Z,19.69
2023-05-10T12:10:18.626Z,19.65
2023-05-10T12:12:47.129Z,19.79
2023-05-10T12:15:22.077Z,19.69
2023-05-10T12:17:49.442Z,19.36
2023-05-10T12:20:21.331Z,19.16
2023-05-10T12:22:53.011Z,19.18
2023-05-10T12:25:20.516Z,19.40
2023-05-10T12:27:57.441Z,19.46
2023-05-10T12:30:25.495Z,19.75
2023-05-10T12:32:53.205Z,20.03
2023-05-10T12:35:25.189Z,20.19
2023-05-10T12:37:52.418Z,20.61
2023-05-10T12:40:19.608Z,20.96
2023-05-10T12:42:46.792Z,21.17
2023-05-10T12:45:13.949Z,21.22
2023-05-10T12:47:43.899Z,21.13
2023-05-10T12:50:12.471Z,20.66
2023-05-10T12:52:39.721Z,20.01
2023-05-10T12:55:07.766Z,19.78
2023-05-10T12:57:35.396Z,19.64
2023-05-10T13:00:02.515Z,19.58
2023-05-10T13:02:30.151Z,19.66
2023-05-10T13:04:57.526Z,19.96
2023-05-10T13:07:24.679Z,20.38
2023-05-10T13:09:52.963Z,20.83
2023-05-10T13:12:20.018Z,21.19
2023-05-10T13:14:47.089Z,21.54
2023-05-10T13:17:14.201Z,21.86
2023-05-10T13:19:41.432Z,22.35
2023-05-10T13:22:09.269Z,22.78
2023-05-10T13:24:36.602Z,23.25
2023-05-10T13:27:03.649Z,23.69
2023-05-10T13:29:30.694Z,24.10
2023-05-10T13:31:57.780Z,24.48
2023-05-10T13:34:25.397Z,24.72
2023-05-10T13:36:54.070Z,24.93
2023-05-10T13:39:21.815Z,25.17
2023-05-10T13:41:49.021Z,25.37
2023-05-10T13:44:16.591Z,25.53
2023-05-10T13:46:43.727Z,25.66
2023-05-10T13:49:10.848Z,25.72
2023-05-10T13:51:37.929Z,25.77
2023-05-10T13:54:05.206Z,25.81
2023-05-10T13:56:32.356Z,25.96
2023-05-10T13:58:59.922Z,26.12
2023-05-10T14:01:27.145Z,26.22
2023-05-10T14:03:55.250Z,26.30
2023-05-10T14:06:22.999Z,26.33
2023-05-10T14:08:50.824Z,26.39
2023-05-10T14:11:18.716Z,26.43
2023-05-10T14:13:45.790Z,26.39
2023-05-10T14:16:12.978Z,26.21
2023-05-10T14:18:40.093Z,26.16
2023-05-10T14:21:07.271Z,25.93
2023-05-10T14:23:34.321Z,25.26
2023-05-10T14:26:01.633Z,24.53
2023-05-10T14:28:28.979Z,24.40
2023-05-10T14:30:56.033Z,24.77
2023-05-10T14:33:23.119Z,25.26
2023-05-10T14:35:50.366Z,25.63
2023-05-10T14:38:17.412Z,26.03
2023-05-10T14:40:44.419Z,26.23
2023-05-10T14:43:11.471Z,26.36
2023-05-10T14:45:39.869Z,26.50
2023-05-10T14:48:06.997Z,26.65
2023-05-10T14:50:37.148Z,26.84
2023-05-10T14:53:05.314Z,26.83
2023-05-10T14:55:32.398Z,26.88
2023-05-10T14:57:59.856Z,26.94
2023-05-10T15:00:27.353Z,27.04
2023-05-10T15:02:55.126Z,26.95
2023-05-10T15:05:23.323Z,26.85
2023-05-10T15:07:50.944Z,26.77
2023-05-10T15:10:19.433Z,26.50
2023-05-10T15:12:49.629Z,25.69
2023-05-10T15:15:17.038Z,24.63
2023-05-10T15:17:44.620Z,23.56
2023-05-10T15:20:11.982Z,22.62
2023-05-10T15:22:39.428Z,21.82
2023-05-10T15:25:07.068Z,21.16
2023-05-10T15:27:34.431Z,20.58
2023-05-10T15:30:01.786Z,20.07
2023-05-10T15:32:30.400Z,19.64
2023-05-10T15:34:57.492Z,19.22
2023-05-10T15:37:25.589Z,18.88
2023-05-10T15:39:52.727Z,18.59
2023-05-10T15:42:19.843Z,18.27
2023-05-10T15:44:51.250Z,17.96
2023-05-10T15:47:18.663Z,17.65
2023-05-10T15:49:46.116Z,17.38
2023-05-10T15:52:13.366Z,17.11
2023-05-10T15:54:41.869Z,16.83
2023-05-10T15:57:09.539Z,16.62
2023-05-10T15:59:37.627Z,16.41
2023-05-10T16:02:05.184Z,16.17
2023-05-10T16:04:32.715Z,15.95
2023-05-10T16:07:01.254Z,15.78
2023-05-10T16:09:29.044Z,15.63
2023-05-10T16:11:56.982Z,15.47
2023-05-10T16:14:24.960Z,15.30
2023-05-10T16:16:52.945Z,15.16
2023-05-10T16:19:20.224Z,15.04
2023-05-10T16:21:47.901Z,14.92
2023-05-10T16:24:15.777Z,14.85
2023-05-10T16:26:43.542Z,14.76
2023-05-10T16:29:11.227Z,14.66
2023-05-10T16:31:39.177Z,14.59
2023-05-10T16:34:09.748Z,14.51
2023-05-10T16:36:37.671Z,14.46
2023-05-10T16:39:06.129Z,14.40
2023-05-10T16:41:34.752Z,14.35
2023-05-10T16:44:05.407Z,14.32
2023-05-10T16:46:33.974Z,14.29
2023-05-10T16:49:01.199Z,14.23
2023-05-10T16:51:29.376Z,14.14
2023-05-10T16:53:56.533Z,14.09
2023-05-10T16:56:24.631Z,14.04
2023-05-10T16:58:51.925Z,14.01
2023-05-10T17:01:21.113Z,13.83
2023-05-10T17:03:49.541Z,13.53
2023-05-10T17:06:17.145Z,13.25
2023-05-10T17:08:44.796Z,13.03
2023-05-10T17:11:12.611Z,12.78
2023-05-10T17:13:41.119Z,12.54
2023-05-10T17:16:08.833Z,12.38
2023-05-10T17:18:36.048Z,12.20
2023-05-10T17:21:03.497Z,12.01
2023-05-10T17:23:30.692Z,11.84
2023-05-10T17:26:00.163Z,11.70
2023-05-10T17:28:29.936Z,11.60
2023-05-10T17:30:58.096Z,11.52
2023-05-10T17:33:25.212Z,11.50
2023-05-10T17:35:52.474Z,11.47
2023-05-10T17:38:19.702Z,11.48
2023-05-10T17:40:48.351Z,11.50
2023-05-10T17:43:16.169Z,11.54
2023-05-10T17:45:44.480Z,11.59
2023-05-10T17:48:12.863Z,11.64
2023-05-10T17:50:42.467Z,11.70
2023-05-10T17:53:09.932Z,11.75
2023-05-10T17:55:37.063Z,11.80
2023-05-10T17:58:04.171Z,11.80
2023-05-10T18:00:31.279Z,11.84
2023-05-10T18:02:58.461Z,11.91
2023-05-10T18:05:25.912Z,11.97
2023-05-10T18:07:53.286Z,11.97
2023-05-10T18:10:20.853Z,11.99
2023-05-10T18:12:53.224Z,12.05
2023-05-10T18:15:21.770Z,12.14
2023-05-10T18:17:49.875Z,12.17
2023-05-10T18:20:17.118Z,12.21
2023-05-10T18:22:44.335Z,12.26
2023-05-10T18:25:11.715Z,12.23
2023-05-10T18:27:39.072Z,12.18
2023-05-10T18:30:06.897Z,12.17
2023-05-10T18:32:34.254Z,12.15
2023-05-10T18:35:01.791Z,12.18
2023-05-10T18:37:29.282Z,12.24
2023-05-10T18:41:39.327Z,12.22
2023-05-10T18:44:10.162Z,12.19
2023-05-10T18:46:38.677Z,12.19
2023-05-10T18:49:06.911Z,12.21
2023-05-10T18:51:34.113Z,12.19
2023-05-10T18:54:01.979Z,12.15
2023-05-10T18:56:34.832Z,12.11
2023-05-10T18:59:03.562Z,12.03
2023-05-10T19:01:31.121Z,11.98
2023-05-10T19:03:59.224Z,11.93
2023-05-10T19:06:26.599Z,11.88
2023-05-10T19:08:54.486Z,11.88
2023-05-10T19:11:23.819Z,11.81
2023-05-10T19:13:51.065Z,11.76
2023-05-10T19:16:19.293Z,11.69
2023-05-10T19:18:47.053Z,11.61
2023-05-10T19:21:14.640Z,11.54
2023-05-10T19:23:43.315Z,11.49
2023-05-10T19:26:13.825Z,11.47
2023-05-10T19:28:41.701Z,11.45
2023-05-10T19:31:09.664Z,11.44
2023-05-10T19:33:38.757Z,11.44
2023-05-10T19:36:10.599Z,11.45
2023-05-10T19:38:38.059Z,11.47
2023-05-10T19:41:07.612Z,11.42
2023-05-10T19:43:37.184Z,11.45
2023-05-10T19:46:04.613Z,11.49
2023-05-10T19:48:32.247Z,11.49
2023-05-10T19:51:06.986Z,11.47
2023-05-10T19:53:36.762Z,11.46
2023-05-10T19:56:05.385Z,11.40
2023-05-10T19:58:33.525Z,11.30
2023-05-10T20:01:00.668Z,11.26
2023-05-10T20:03:28.707Z,11.23
2023-05-10T20:05:55.929Z,11.27
2023-05-10T20:08:24.732Z,11.30
2023-05-10T20:10:59.877Z,11.35
2023-05-10T20:13:28.383Z,11.32
2023-05-10T20:15:56.850Z,11.35
2023-05-10T20:18:24.170Z,11.32
2023-05-10T20:20:55.806Z,11.32
2023-05-10T20:23:23.619Z,11.28
2023-05-10T20:25:51.376Z,11.26
2023-05-10T20:28:23.213Z,11.20
2023-05-10T20:30:54.339Z,11.19
2023-05-10T20:33:25.377Z,11.11
2023-05-10T20:35:52.656Z,11.07
2023-05-10T20:38:19.776Z,11.02
2023-05-10T20:40:47.523Z,10.92
2023-05-10T20:43:14.593Z,10.85
2023-05-10T20:45:41.908Z,10.77
2023-05-10T20:48:09.881Z,10.70
2023-05-10T20:50:36.958Z,10.63
2023-05-10T20:53:04.200Z,10.56
2023-05-10T20:55:31.373Z,10.45
2023-05-10T20:57:58.467Z,10.40
2023-05-10T21:00:26.253Z,10.33
2023-05-10T21:02:53.395Z,10.24
2023-05-10T21:05:20.658Z,10.10
2023-05-10T21:07:47.889Z,9.99
2023-05-10T21:10:15.929Z,9.87
2023-05-10T21:12:56.962Z,9.78
2023-05-10T21:15:25.672Z,9.71
2023-05-10T21:17:54.219Z,9.68
2023-05-10T21:20:21.427Z,9.63
2023-05-10T21:22:49.034Z,9.61
2023-05-10T21:25:16.272Z,9.56
2023-05-10T21:27:43.337Z,9.47
2023-05-10T21:30:10.674Z,9.40
2023-05-10T21:32:37.887Z,9.33
2023-05-10T21:35:05.707Z,9.28
2023-05-10T21:37:32.796Z,9.22
2023-05-10T21:40:00.920Z,9.21
2023-05-10T21:42:28.073Z,9.20
2023-05-10T21:44:55.226Z,9.18
2023-05-10T21:47:22.722Z,9.15
2023-05-10T21:49:50.731Z,9.10
2023-05-10T21:52:17.871Z,9.17
2023-05-10T21:54:45.050Z,9.16
2023-05-10T21:57:12.394Z,9.14
2023-05-10T21:59:57.867Z,9.11
2023-05-10T22:02:25.201Z,9.12
2023-05-10T22:04:52.434Z,9.15
2023-05-10T22:07:19.488Z,9.17
2023-05-10T22:09:46.637Z,9.12
2023-05-10T22:12:13.852Z,9.05
2023-05-10T22:14:41.252Z,9.03
2023-05-10T22:17:08.513Z,8.96
2023-05-10T22:19:35.867Z,8.96
2023-05-10T22:22:03.008Z,8.91
2023-05-10T22:24:31.177Z,8.87
2023-05-10T22:26:58.344Z,8.85
2023-05-10T22:29:25.453Z,8.79
2023-05-10T22:31:52.532Z,8.73
2023-05-10T22:34:19.697Z,8.64
2023-05-10T22:36:46.882Z,8.57
2023-05-10T22:39:13.963Z,8.54
2023-05-10T22:41:41.036Z,8.57
2023-05-10T22:44:08.981Z,8.63
2023-05-10T22:46:37.724Z,8.68
2023-05-10T22:49:06.099Z,8.70
2023-05-10T22:51:33.432Z,8.70
2023-05-10T22:54:00.573Z,8.71
2023-05-10T22:56:27.625Z,8.68
2023-05-10T22:58:55.183Z,8.60
2023-05-10T23:01:22.441Z,8.59
2023-05-10T23:03:49.700Z,8.63
2023-05-10T23:06:16.918Z,8.61
2023-05-10T23:08:44.495Z,8.60
2023-05-10T23:11:11.535Z,8.59
2023-05-10T23:13:38.608Z,8.56
2023-05-10T23:16:06.770Z,8.57
2023-05-10T23:18:34.218Z,8.56
2023-05-10T23:21:01.277Z,8.60
2023-05-10T23:23:28.409Z,8.56
2023-05-10T23:25:55.540Z,8.58
2023-05-10T23:28:24.058Z,8.57
2023-05-10T23:30:58.212Z,8.54
2023-05-10T23:33:25.387Z,8.55
2023-05-10T23:35:53.447Z,8.46
2023-05-10T23:38:21.139Z,8.45
2023-05-10T23:40:52.186Z,8.49
2023-05-10T23:43:20.070Z,8.43
2023-05-10T23:45:56.837Z,8.48
2023-05-10T23:48:24.418Z,8.50
2023-05-10T23:50:51.445Z,8.47
2023-05-10T23:53:18.522Z,8.49
2023-05-10T23:55:46.233Z,8.52
2023-05-10T23:58:13.457Z,8.55
